Time;durP1;ratioP1;P1;durP2;ratioP2;P2;SDS_P1;SDS_P2;PMS_P1;PMS_P2;Temp;Humidity;BMP_temperature;BMP_pressure;BME280_temperature;BME280_humidity;BME280_pressure;Samples;Min_cycle;Max_cycle;Signal;HPM_P1;HPM_P2
2022/10/27 05:23:12;;;;;;;17.95;9.15;;;;;;;;;;5241294;23;20057;-63
2022/10/27 05:25:38;;;;;;;18.55;8.70;;;;;;;;;;4896689;29;20104;-59
2022/10/27 05:28:05;;;;;;;18.83;9.35;;;;;;;;;;4895582;29;20485;-70
2022/10/27 05:30:32;;;;;;;17.15;9.05;;;;;;;;;;4895913;29;20044;-70
2022/10/27 05:32:58;;;;;;;20.13;8.80;;;;;;;;;;4879076;29;20128;-70
2022/10/27 05:35:24;;;;;;;16.92;9.00;;;;;;;;;;4895982;29;20029;-64
2022/10/27 05:37:50;;;;;;;21.40;9.05;;;;;;;;;;4895961;29;20469;-61
2022/10/27 05:40:16;;;;;;;15.32;9.13;;;;;;;;;;4898844;29;20481;-59
2022/10/27 05:42:55;;;;;;;21.73;11.32;;;;;;;;;;4904667;29;20047;-64
2022/10/27 05:45:22;;;;;;;24.83;11.18;;;;;;;;;;4900249;29;20041;-59
2022/10/27 05:47:48;;;;;;;23.35;10.93;;;;;;;;;;4895644;29;20112;-60
2022/10/27 05:50:14;;;;;;;20.58;10.27;;;;;;;;;;4895653;29;20113;-59
2022/10/27 05:52:40;;;;;;;18.70;9.45;;;;;;;;;;4879586;29;20144;-68
2022/10/27 05:55:07;;;;;;;21.50;10.13;;;;;;;;;;4903523;29;20079;-59
2022/10/27 05:57:33;;;;;;;26.05;10.75;;;;;;;;;;4903185;29;20044;-59
2022/10/27 05:59:59;;;;;;;17.70;9.20;;;;;;;;;;4904776;29;20020;-59
2022/10/27 06:02:25;;;;;;;16.13;9.05;;;;;;;;;;4900507;29;20421;-66
2022/10/27 06:04:51;;;;;;;23.48;9.20;;;;;;;;;;4903429;29;20454;-59
2022/10/27 06:07:17;;;;;;;18.60;9.52;;;;;;;;;;4904376;29;20408;-62
2022/10/27 06:09:43;;;;;;;23.00;9.55;;;;;;;;;;4904826;29;20025;-59
2022/10/27 06:12:09;;;;;;;23.80;10.02;;;;;;;;;;4902842;29;20033;-60
2022/10/27 06:14:35;;;;;;;18.40;9.15;;;;;;;;;;4903887;29;20053;-62
2022/10/27 06:17:01;;;;;;;20.23;9.48;;;;;;;;;;4904201;29;20025;-58
2022/10/27 06:19:27;;;;;;;24.77;10.10;;;;;;;;;;4903333;29;20031;-62
2022/10/27 06:21:53;;;;;;;23.63;10.27;;;;;;;;;;4908033;29;20028;-72
2022/10/27 06:24:19;;;;;;;20.20;9.50;;;;;;;;;;4895010;29;20545;-63
2022/10/27 06:26:45;;;;;;;31.30;10.75;;;;;;;;;;4887342;29;20032;-60
2022/10/27 06:29:11;;;;;;;30.67;9.88;;;;;;;;;;4888780;29;20084;-60
2022/10/27 06:31:40;;;;;;;22.75;10.27;;;;;;;;;;4888072;29;20148;-59
2022/10/27 06:34:06;;;;;;;23.05;10.57;;;;;;;;;;4887207;29;20458;-58
2022/10/27 06:36:32;;;;;;;19.05;11.32;;;;;;;;;;4888662;29;20493;-59
2022/10/27 06:38:58;;;;;;;32.28;16.17;;;;;;;;;;4888621;29;20112;-61
2022/10/27 06:41:25;;;;;;;21.08;11.35;;;;;;;;;;4883181;29;20037;-72
2022/10/27 06:43:51;;;;;;;20.13;9.80;;;;;;;;;;4889240;29;20021;-60
2022/10/27 06:46:17;;;;;;;18.33;9.77;;;;;;;;;;4887423;29;20033;-65
2022/10/27 06:48:43;;;;;;;25.60;10.35;;;;;;;;;;4887946;29;20466;-71
2022/10/27 06:51:09;;;;;;;32.47;10.52;;;;;;;;;;4888948;29;20021;-63
2022/10/27 06:53:35;;;;;;;19.65;10.73;;;;;;;;;;4886820;29;20045;-59
2022/10/27 06:56:01;;;;;;;25.10;10.05;;;;;;;;;;4881354;29;20033;-59
2022/10/27 06:58:27;;;;;;;23.20;10.68;;;;;;;;;;4879912;29;20033;-57
2022/10/27 07:00:53;;;;;;;19.17;10.07;;;;;;;;;;4879710;29;20112;-64
2022/10/27 07:03:19;;;;;;;25.02;9.75;;;;;;;;;;4879350;29;20269;-60
2022/10/27 07:05:45;;;;;;;25.70;10.40;;;;;;;;;;4879712;29;20032;-58
2022/10/27 07:08:11;;;;;;;23.95;10.23;;;;;;;;;;4864536;29;20045;-60
2022/10/27 07:10:37;;;;;;;20.52;10.07;;;;;;;;;;4879319;29;20029;-58
2022/10/27 07:13:04;;;;;;;27.25;11.05;;;;;;;;;;4879232;29;20096;-58
2022/10/27 07:15:31;;;;;;;19.95;9.80;;;;;;;;;;4879344;29;20105;-60
2022/10/27 07:18:01;;;;;;;23.75;10.90;;;;;;;;;;4879559;29;20136;-68
2022/10/27 07:20:29;;;;;;;22.15;9.95;;;;;;;;;;4891186;29;20528;-64
2022/10/27 07:22:55;;;;;;;25.90;10.65;;;;;;;;;;4896501;29;20053;-63
2022/10/27 07:25:21;;;;;;;25.50;11.07;;;;;;;;;;4893473;29;20029;-65
2022/10/27 07:27:52;;;;;;;23.75;10.63;;;;;;;;;;4891581;29;20033;-59
2022/10/27 07:30:18;;;;;;;24.10;10.75;;;;;;;;;;4887987;29;20484;-59
2022/10/27 07:32:44;;;;;;;24.00;11.32;;;;;;;;;;4885397;29;20116;-60
2022/10/27 07:35:10;;;;;;;21.30;11.85;;;;;;;;;;4887589;29;20442;-59
2022/10/27 07:37:41;;;;;;;30.77;13.52;;;;;;;;;;4887485;29;20035;-65
2022/10/27 07:40:08;;;;;;;23.38;12.52;;;;;;;;;;4883994;29;20040;-67
2022/10/27 07:42:40;;;;;;;23.98;13.13;;;;;;;;;;4887777;29;20081;-71
2022/10/27 07:45:06;;;;;;;24.23;13.43;;;;;;;;;;4887779;29;20100;-68
2022/10/27 07:47:32;;;;;;;24.83;12.43;;;;;;;;;;4886316;29;20064;-58
2022/10/27 07:49:58;;;;;;;21.02;11.73;;;;;;;;;;4887324;29;20522;-59
2022/10/27 07:52:24;;;;;;;23.10;11.32;;;;;;;;;;4885781;29;20501;-62
2022/10/27 07:54:50;;;;;;;20.65;11.40;;;;;;;;;;4885785;29;20111;-65
2022/10/27 07:57:17;;;;;;;18.98;9.85;;;;;;;;;;4883065;29;20040;-59
2022/10/27 07:59:43;;;;;;;20.00;10.35;;;;;;;;;;4878608;29;20044;-58
2022/10/27 08:02:10;;;;;;;20.65;10.85;;;;;;;;;;4878807;29;20029;-58
2022/10/27 08:04:36;;;;;;;18.17;10.20;;;;;;;;;;4878302;29;20084;-58
2022/10/27 08:07:02;;;;;;;22.23;9.88;;;;;;;;;;4878624;29;20041;-61
2022/10/27 08:09:28;;;;;;;24.38;10.25;;;;;;;;;;4878566;29;20443;-58
2022/10/27 08:11:54;;;;;;;19.77;9.75;;;;;;;;;;4878423;29;20033;-70
2022/10/27 08:14:20;;;;;;;18.27;9.50;;;;;;;;;;4878505;29;20033;-59
2022/10/27 08:16:46;;;;;;;20.85;9.07;;;;;;;;;;4878614;29;20028;-58
2022/10/27 08:19:12;;;;;;;21.52;9.35;;;;;;;;;;4878314;29;20034;-73
2022/10/27 08:21:38;;;;;;;15.90;8.60;;;;;;;;;;4878221;29;20032;-71
2022/10/27 08:24:05;;;;;;;23.92;10.63;;;;;;;;;;4877802;29;20049;-59
2022/10/27 08:26:31;;;;;;;22.33;9.80;;;;;;;;;;4878067;29;20056;-59
2022/10/27 08:28:57;;;;;;;21.95;10.30;;;;;;;;;;4877965;29;20040;-60
2022/10/27 08:31:23;;;;;;;25.08;11.57;;;;;;;;;;4877991;29;20025;-72
2022/10/27 08:33:49;;;;;;;22.13;10.57;;;;;;;;;;4877635;29;20025;-58
2022/10/27 08:36:15;;;;;;;21.58;9.65;;;;;;;;;;4877742;29;20033;-62
2022/10/27 08:38:41;;;;;;;19.55;9.68;;;;;;;;;;4877555;29;20025;-66
2022/10/27 08:41:24;;;;;;;21.48;9.07;;;;;;;;;;4860630;29;20051;-63
2022/10/27 08:44:10;;;;;;;18.42;8.27;;;;;;;;;;4876873;29;20064;-67
2022/10/27 08:46:39;;;;;;;21.08;8.10;;;;;;;;;;4877418;29;20132;-59
2022/10/27 08:49:08;;;;;;;17.20;8.10;;;;;;;;;;4877913;29;20032;-59
2022/10/27 08:51:34;;;;;;;18.90;8.50;;;;;;;;;;4877685;29;20490;-59
2022/10/27 08:54:01;;;;;;;24.15;8.95;;;;;;;;;;4883659;29;20040;-58
2022/10/27 08:56:32;;;;;;;15.90;7.90;;;;;;;;;;4877692;29;20033;-61
2022/10/27 08:58:58;;;;;;;16.13;8.32;;;;;;;;;;4877672;29;20029;-59
2022/10/27 09:01:45;;;;;;;13.88;8.18;;;;;;;;;;4876720;29;20033;-67
2022/10/27 09:04:27;;;;;;;16.00;8.18;;;;;;;;;;4883265;29;20028;-60
2022/10/27 09:07:10;;;;;;;23.83;9.15;;;;;;;;;;4895032;29;20045;-60
2022/10/27 09:09:35;;;;;;;;;;;;;;;;;;4895439;29;20088;-60
2022/10/27 09:12:05;;;;;;;19.13;8.55;;;;;;;;;;4888983;29;19919;-59
2022/10/27 09:14:37;;;;;;;14.95;8.32;;;;;;;;;;4883176;29;20052;-59
2022/10/27 09:17:08;;;;;;;20.42;9.50;;;;;;;;;;4878650;29;20461;-59
2022/10/27 09:19:48;;;;;;;20.67;8.40;;;;;;;;;;4882801;29;20031;-59
2022/10/27 09:22:16;;;;;;;21.95;8.70;;;;;;;;;;4881407;29;20044;-59
2022/10/27 09:24:42;;;;;;;17.52;8.07;;;;;;;;;;4884300;29;20117;-58
2022/10/27 09:27:10;;;;;;;19.20;8.50;;;;;;;;;;4883853;29;20064;-59
2022/10/27 09:29:37;;;;;;;16.02;6.47;;;;;;;;;;4884145;29;20488;-59
2022/10/27 09:32:05;;;;;;;12.43;6.70;;;;;;;;;;4883376;29;20035;-63
2022/10/27 09:34:39;;;;;;;25.05;8.10;;;;;;;;;;4884774;29;20037;-58
2022/10/27 09:37:16;;;;;;;12.48;5.70;;;;;;;;;;4885700;29;20093;-59
2022/10/27 09:39:45;;;;;;;14.68;5.47;;;;;;;;;;4883531;29;20041;-59
2022/10/27 09:42:11;;;;;;;11.45;6.90;;;;;;;;;;4883677;29;20021;-59
2022/10/27 09:44:38;;;;;;;15.90;7.38;;;;;;;;;;4884362;29;20046;-69
2022/10/27 09:47:04;;;;;;;13.70;6.45;;;;;;;;;;4885132;29;20037;-59
2022/10/27 09:49:35;;;;;;;17.30;8.23;;;;;;;;;;4883078;29;20033;-62
2022/10/27 09:52:03;;;;;;;18.40;7.67;;;;;;;;;;4883259;29;20021;-58
2022/10/27 09:54:31;;;;;;;18.75;7.78;;;;;;;;;;4886611;29;20060;-59
2022/10/27 09:57:11;;;;;;;17.75;8.40;;;;;;;;;;4887715;29;20522;-57
2022/10/27 09:59:38;;;;;;;21.83;8.68;;;;;;;;;;4885975;29;20365;-59
2022/10/27 10:02:07;;;;;;;21.02;8.48;;;;;;;;;;4870811;29;20032;-71
2022/10/27 10:04:45;;;;;;;21.33;8.13;;;;;;;;;;4890006;29;20024;-68
2022/10/27 10:07:28;;;;;;;18.80;8.88;;;;;;;;;;4890550;29;20092;-74
2022/10/27 10:10:17;;;;;;;17.80;7.13;;;;;;;;;;4885592;29;20032;-58
2022/10/27 10:12:43;;;;;;;18.38;7.00;;;;;;;;;;4811487;29;20072;-58
2022/10/27 10:15:09;;;;;;;16.55;6.88;;;;;;;;;;4811090;29;20073;-58
2022/10/27 10:18:11;;;;;;;15.73;7.18;;;;;;;;;;4813375;29;20146;-60
2022/10/27 10:20:41;;;;;;;17.88;7.47;;;;;;;;;;4793668;29;20037;-59
2022/10/27 10:23:19;;;;;;;15.93;7.40;;;;;;;;;;4793555;29;20074;-58
2022/10/27 10:25:48;;;;;;;17.25;7.70;;;;;;;;;;4795505;29;20221;-75
2022/10/27 10:28:34;;;;;;;13.52;7.47;;;;;;;;;;4791835;29;20477;-57
2022/10/27 10:31:01;;;;;;;17.38;7.40;;;;;;;;;;4802481;29;20038;-60
2022/10/27 10:33:38;;;;;;;17.35;6.85;;;;;;;;;;4792842;29;20088;-57
2022/10/27 10:36:16;;;;;;;14.40;6.43;;;;;;;;;;4782153;29;20188;-57
2022/10/27 10:38:48;;;;;;;14.27;5.30;;;;;;;;;;4788958;29;20038;-58
2022/10/27 10:41:16;;;;;;;16.58;5.18;;;;;;;;;;4802879;29;20059;-58
2022/10/27 10:43:42;;;;;;;16.02;6.47;;;;;;;;;;4803246;29;20084;-59
2022/10/27 10:46:38;;;;;;;12.30;5.63;;;;;;;;;;4799526;29;20534;-58
2022/10/27 10:49:04;;;;;;;17.63;6.00;;;;;;;;;;4750140;30;20052;-67
2022/10/27 10:51:31;;;;;;;16.67;7.75;;;;;;;;;;4786983;29;20066;-59
2022/10/27 10:54:02;;;;;;;11.25;6.55;;;;;;;;;;4803413;29;20038;-66
2022/10/27 10:56:29;;;;;;;18.70;7.30;;;;;;;;;;4820631;29;20039;-58
2022/10/27 10:59:02;;;;;;;13.55;5.15;;;;;;;;;;4811604;29;20054;-57
2022/10/27 11:01:57;;;;;;;11.30;4.93;;;;;;;;;;4804899;29;20392;-58
2022/10/27 11:04:25;;;;;;;10.10;4.97;;;;;;;;;;4791292;29;20082;-58
2022/10/27 11:06:57;;;;;;;12.77;5.03;;;;;;;;;;4808717;29;20066;-70
2022/10/27 11:09:26;;;;;;;14.23;5.47;;;;;;;;;;4814943;29;20065;-58
2022/10/27 11:11:53;;;;;;;15.63;5.97;;;;;;;;;;4809725;29;20054;-58
2022/10/27 11:14:19;;;;;;;10.27;4.80;;;;;;;;;;4810664;29;20030;-57
2022/10/27 11:16:56;;;;;;;20.60;6.32;;;;;;;;;;4811130;29;20398;-64
2022/10/27 11:19:23;;;;;;;10.45;4.43;;;;;;;;;;4805333;29;20050;-59
2022/10/27 11:22:07;;;;;;;12.13;5.68;;;;;;;;;;4812473;29;20030;-60
2022/10/27 11:24:41;;;;;;;9.75;4.82;;;;;;;;;;4828997;29;20203;-60
2022/10/27 11:27:14;;;;;;;10.68;4.30;;;;;;;;;;4889550;29;20036;-59
2022/10/27 11:29:40;;;;;;;;;;;;;;;;;;4886722;29;20028;-71
2022/10/27 11:32:08;;;;;;;8.98;4.18;;;;;;;;;;4896010;29;19907;-59
2022/10/27 11:34:46;;;;;;;10.82;3.80;;;;;;;;;;4893264;29;20277;-62
2022/10/27 11:37:18;;;;;;;9.02;4.00;;;;;;;;;;4881367;29;20037;-59
2022/10/27 11:39:50;;;;;;;9.27;3.80;;;;;;;;;;4877991;29;20027;-69
2022/10/27 11:42:16;;;;;;;;;;;;;;;;;;4878343;29;20081;-59
2022/10/27 11:44:45;;;;;;;9.30;4.63;;;;;;;;;;4877745;29;19912;-59
2022/10/27 11:47:19;;;;;;;12.57;4.65;;;;;;;;;;4878011;29;20100;-58
2022/10/27 11:49:49;;;;;;;8.95;3.95;;;;;;;;;;4877818;29;20051;-64
2022/10/27 11:52:18;;;;;;;8.32;3.90;;;;;;;;;;4877290;29;20037;-71
2022/10/27 11:54:45;;;;;;;7.28;3.67;;;;;;;;;;4877107;29;20386;-58
2022/10/27 11:57:20;;;;;;;8.18;3.83;;;;;;;;;;4877577;29;20037;-60
2022/10/27 11:59:55;;;;;;;10.55;3.42;;;;;;;;;;4877855;29;20029;-59
2022/10/27 12:02:40;;;;;;;5.05;3.00;;;;;;;;;;4878382;29;20048;-60
2022/10/27 12:05:09;;;;;;;8.00;3.80;;;;;;;;;;4878206;29;20025;-60
2022/10/27 12:07:41;;;;;;;6.72;3.70;;;;;;;;;;4878567;29;20049;-60
2022/10/27 12:10:29;;;;;;;9.60;3.88;;;;;;;;;;4878213;29;20089;-60
2022/10/27 12:13:07;;;;;;;12.88;4.25;;;;;;;;;;4878211;29;20037;-60
2022/10/27 12:15:47;;;;;;;9.00;3.80;;;;;;;;;;4878189;29;20052;-60
2022/10/27 12:18:21;;;;;;;7.78;4.10;;;;;;;;;;4877932;29;20026;-60
2022/10/27 12:20:50;;;;;;;10.95;4.68;;;;;;;;;;4878247;29;20112;-61
2022/10/27 12:23:27;;;;;;;7.53;4.40;;;;;;;;;;4877861;29;20515;-63
2022/10/27 12:26:00;;;;;;;10.18;4.50;;;;;;;;;;4877865;29;20517;-70
2022/10/27 12:28:27;;;;;;;10.82;4.63;;;;;;;;;;4878143;29;20164;-60
2022/10/27 12:30:54;;;;;;;9.55;4.63;;;;;;;;;;4877921;29;20073;-63
2022/10/27 12:33:23;;;;;;;13.68;4.30;;;;;;;;;;4878209;29;20390;-60
2022/10/27 12:35:55;;;;;;;9.02;4.35;;;;;;;;;;4878170;29;20173;-60
2022/10/27 12:38:26;;;;;;;13.35;4.60;;;;;;;;;;4877883;29;20426;-59
2022/10/27 12:41:01;;;;;;;13.00;4.65;;;;;;;;;;4877669;29;20033;-60
2022/10/27 12:43:27;;;;;;;9.32;4.20;;;;;;;;;;4877951;29;20029;-60
2022/10/27 12:46:17;;;;;;;11.57;4.68;;;;;;;;;;4877832;29;20025;-60
2022/10/27 12:48:58;;;;;;;8.55;4.00;;;;;;;;;;4837880;29;20423;-60
2022/10/27 12:51:30;;;;;;;14.05;4.60;;;;;;;;;;4838414;29;20074;-66
2022/10/27 12:54:05;;;;;;;10.23;4.35;;;;;;;;;;4838160;29;20053;-60
2022/10/27 12:56:43;;;;;;;9.32;4.38;;;;;;;;;;4838334;29;20438;-61
2022/10/27 12:59:12;;;;;;;11.38;4.50;;;;;;;;;;4838320;29;20038;-62
2022/10/27 13:01:39;;;;;;;10.95;4.30;;;;;;;;;;4838204;29;20094;-66
2022/10/27 13:04:18;;;;;;;9.88;4.55;;;;;;;;;;4837917;29;20483;-61
2022/10/27 13:06:49;;;;;;;9.32;4.53;;;;;;;;;;4837215;29;20162;-60
2022/10/27 13:09:15;;;;;;;12.73;4.47;;;;;;;;;;4836873;29;20525;-59
2022/10/27 13:11:57;;;;;;;11.82;4.72;;;;;;;;;;4837863;29;20045;-59
2022/10/27 13:14:29;;;;;;;6.05;3.78;;;;;;;;;;4837682;29;20549;-58
2022/10/27 13:16:58;;;;;;;9.57;3.97;;;;;;;;;;4837373;29;20061;-59
2022/10/27 13:19:53;;;;;;;7.90;4.30;;;;;;;;;;4837710;29;20037;-59
2022/10/27 13:22:33;;;;;;;10.77;3.97;;;;;;;;;;4782197;30;20043;-66
2022/10/27 13:25:05;;;;;;;8.13;3.53;;;;;;;;;;4789743;29;20069;-59
2022/10/27 13:27:31;;;;;;;;;;;;;;;;;;4820008;29;20054;-59
2022/10/27 13:30:13;;;;;;;11.18;4.13;;;;;;;;;;4818946;29;19989;-58
2022/10/27 13:32:41;;;;;;;14.27;4.25;;;;;;;;;;4819858;29;20052;-59
2022/10/27 13:35:13;;;;;;;7.68;3.40;;;;;;;;;;4819062;29;20065;-59
2022/10/27 13:37:49;;;;;;;7.22;3.30;;;;;;;;;;4819245;29;20046;-59
2022/10/27 13:40:17;;;;;;;7.15;3.30;;;;;;;;;;4819949;29;20110;-59
2022/10/27 13:42:44;;;;;;;8.82;2.70;;;;;;;;;;4808130;29;20120;-59
2022/10/27 13:45:28;;;;;;;11.75;3.03;;;;;;;;;;4794760;29;20434;-61
2022/10/27 13:48:09;;;;;;;9.30;2.92;;;;;;;;;;4806264;29;20043;-62
2022/10/27 13:50:39;;;;;;;7.05;2.75;;;;;;;;;;4806645;29;20030;-58
2022/10/27 13:53:28;;;;;;;5.35;2.60;;;;;;;;;;4808095;29;20062;-59
2022/10/27 13:55:55;;;;;;;8.85;3.55;;;;;;;;;;4808326;29;20074;-61
2022/10/27 13:58:33;;;;;;;7.47;2.63;;;;;;;;;;4835058;29;20607;-58
2022/10/27 14:01:02;;;;;;;7.07;3.17;;;;;;;;;;4883402;29;20055;-57
2022/10/27 14:03:28;;;;;;;5.63;3.03;;;;;;;;;;4883795;29;20040;-57
2022/10/27 14:05:54;;;;;;;10.63;4.15;;;;;;;;;;4885179;29;20020;-65
2022/10/27 14:08:32;;;;;;;8.68;3.35;;;;;;;;;;4885264;29;20374;-62
2022/10/27 14:11:07;;;;;;;7.63;3.35;;;;;;;;;;4882874;29;20025;-59
2022/10/27 14:13:37;;;;;;;9.65;4.00;;;;;;;;;;4881517;29;20394;-59
2022/10/27 14:16:04;;;;;;;7.80;3.88;;;;;;;;;;4884125;29;20027;-57
2022/10/27 14:18:31;;;;;;;10.90;3.92;;;;;;;;;;4885823;29;20025;-58
2022/10/27 14:21:12;;;;;;;9.15;3.63;;;;;;;;;;4881181;29;20037;-58
2022/10/27 14:23:38;;;;;;;13.80;4.72;;;;;;;;;;4876231;29;20048;-58
2022/10/27 14:26:23;;;;;;;13.43;4.22;;;;;;;;;;4878520;29;20039;-57
2022/10/27 14:28:49;;;;;;;14.80;4.82;;;;;;;;;;4882563;29;20128;-57
2022/10/27 14:31:20;;;;;;;13.15;4.97;;;;;;;;;;4877273;29;20104;-59
2022/10/27 14:33:46;;;;;;;17.58;5.30;;;;;;;;;;4876233;29;20467;-60
2022/10/27 14:36:12;;;;;;;12.18;5.13;;;;;;;;;;4876137;29;20041;-59
2022/10/27 14:38:41;;;;;;;14.88;4.78;;;;;;;;;;4876674;29;20445;-59
2022/10/27 14:41:18;;;;;;;10.68;4.65;;;;;;;;;;4878057;29;20092;-60
2022/10/27 14:43:46;;;;;;;11.00;4.95;;;;;;;;;;4880027;29;20053;-58
2022/10/27 14:46:16;;;;;;;9.93;4.88;;;;;;;;;;4880090;29;20030;-59
2022/10/27 14:48:42;;;;;;;9.30;5.05;;;;;;;;;;4879631;29;20040;-68
2022/10/27 14:51:13;;;;;;;15.38;5.28;;;;;;;;;;4879663;29;20367;-67
2022/10/27 14:53:39;;;;;;;10.43;4.80;;;;;;;;;;4879429;29;20043;-58
2022/10/27 14:56:08;;;;;;;10.52;4.47;;;;;;;;;;4879067;29;20037;-58
2022/10/27 14:58:34;;;;;;;12.35;4.65;;;;;;;;;;4879727;29;20378;-58
2022/10/27 15:01:00;;;;;;;10.40;4.38;;;;;;;;;;4879874;29;20025;-59
2022/10/27 15:03:33;;;;;;;8.45;4.43;;;;;;;;;;4879436;29;20044;-58
2022/10/27 15:06:00;;;;;;;13.05;3.65;;;;;;;;;;4879345;29;20033;-58
2022/10/27 15:08:29;;;;;;;11.10;4.13;;;;;;;;;;4879502;29;20037;-58
2022/10/27 15:10:58;;;;;;;7.80;3.90;;;;;;;;;;4885808;29;20390;-59
2022/10/27 15:13:25;;;;;;;7.95;3.42;;;;;;;;;;4879454;29;20061;-59
2022/10/27 15:15:57;;;;;;;12.10;3.67;;;;;;;;;;4882206;29;20067;-64
2022/10/27 15:18:29;;;;;;;8.15;3.60;;;;;;;;;;4879297;29;20055;-58
2022/10/27 15:20:55;;;;;;;7.22;3.10;;;;;;;;;;4879036;29;20125;-59
2022/10/27 15:23:22;;;;;;;8.20;3.00;;;;;;;;;;4878821;29;20051;-58
2022/10/27 15:25:50;;;;;;;8.98;3.90;;;;;;;;;;4879318;29;20091;-58
2022/10/27 15:28:16;;;;;;;8.90;3.45;;;;;;;;;;4890958;29;20369;-58
2022/10/27 15:30:43;;;;;;;9.40;3.80;;;;;;;;;;4895200;29;20028;-58
2022/10/27 15:33:27;;;;;;;7.22;3.50;;;;;;;;;;4878881;29;20059;-58
2022/10/27 15:36:08;;;;;;;6.95;3.50;;;;;;;;;;4884903;29;20121;-59
2022/10/27 15:38:34;;;;;;;8.88;3.65;;;;;;;;;;4896179;29;20028;-67
2022/10/27 15:41:06;;;;;;;8.60;3.67;;;;;;;;;;4886090;29;20040;-63
2022/10/27 15:43:32;;;;;;;8.27;3.70;;;;;;;;;;4879133;29;20116;-61
2022/10/27 15:46:14;;;;;;;10.15;3.80;;;;;;;;;;4878954;29;20024;-63
2022/10/27 15:48:40;;;;;;;10.32;3.42;;;;;;;;;;4878379;29;20394;-66
2022/10/27 15:51:13;;;;;;;10.35;4.28;;;;;;;;;;4883776;29;20028;-68
2022/10/27 15:53:44;;;;;;;7.40;3.95;;;;;;;;;;4891034;29;20020;-62
2022/10/27 15:56:29;;;;;;;11.63;4.00;;;;;;;;;;4876177;29;20024;-62
2022/10/27 15:59:15;;;;;;;8.23;3.90;;;;;;;;;;4890988;29;20044;-70
2022/10/27 16:01:44;;;;;;;8.57;3.53;;;;;;;;;;4883596;29;20048;-68
2022/10/27 16:04:20;;;;;;;8.68;4.22;;;;;;;;;;4879435;29;20028;-68
2022/10/27 16:06:46;;;;;;;8.40;4.30;;;;;;;;;;4890131;29;20040;-68
2022/10/27 16:09:32;;;;;;;11.10;4.38;;;;;;;;;;4892758;29;20020;-62
2022/10/27 16:11:58;;;;;;;8.60;4.15;;;;;;;;;;4874305;29;20240;-63
2022/10/27 16:14:24;;;;;;;8.27;3.70;;;;;;;;;;4887800;29;20044;-64
2022/10/27 16:16:52;;;;;;;9.23;3.80;;;;;;;;;;4888533;29;20032;-60
2022/10/27 16:19:19;;;;;;;8.85;4.45;;;;;;;;;;4874262;29;20035;-59
2022/10/27 16:21:45;;;;;;;9.77;4.15;;;;;;;;;;4892034;29;20037;-61
2022/10/27 16:24:13;;;;;;;9.50;4.15;;;;;;;;;;4886921;29;20071;-64
2022/10/27 16:26:40;;;;;;;10.02;4.28;;;;;;;;;;4887443;29;20116;-71
2022/10/27 16:29:06;;;;;;;16.02;4.72;;;;;;;;;;4884041;29;20040;-61
2022/10/27 16:31:32;;;;;;;11.50;4.82;;;;;;;;;;4887359;29;20029;-61
2022/10/27 16:33:58;;;;;;;14.00;4.63;;;;;;;;;;4892081;29;20047;-62
2022/10/27 16:36:25;;;;;;;11.38;5.13;;;;;;;;;;4886289;29;20052;-62
2022/10/27 16:38:51;;;;;;;10.25;5.43;;;;;;;;;;4885586;29;20024;-62
2022/10/27 16:41:27;;;;;;;9.45;5.60;;;;;;;;;;4884798;29;20100;-62
2022/10/27 16:43:53;;;;;;;14.05;5.18;;;;;;;;;;4884544;29;20067;-65
2022/10/27 16:46:19;;;;;;;12.75;5.45;;;;;;;;;;4884753;29;20032;-69
2022/10/27 16:48:45;;;;;;;14.25;5.22;;;;;;;;;;4886298;29;20043;-62
2022/10/27 16:51:14;;;;;;;10.20;5.28;;;;;;;;;;4883542;29;20425;-61
2022/10/27 16:53:40;;;;;;;11.43;5.40;;;;;;;;;;4886795;29;20029;-60
2022/10/27 16:56:06;;;;;;;11.27;5.63;;;;;;;;;;4895679;29;20092;-61
2022/10/27 16:58:34;;;;;;;13.05;5.47;;;;;;;;;;4894298;29;20040;-58
2022/10/27 17:01:03;;;;;;;14.27;6.60;;;;;;;;;;4884650;29;20477;-58
2022/10/27 17:03:29;;;;;;;19.25;10.38;;;;;;;;;;4878945;29;20029;-72
2022/10/27 17:05:59;;;;;;;15.20;7.90;;;;;;;;;;4881774;29;20024;-59
2022/10/27 17:08:26;;;;;;;15.85;7.90;;;;;;;;;;4877153;29;20560;-57
2022/10/27 17:10:52;;;;;;;15.85;7.22;;;;;;;;;;4885441;29;20029;-58
2022/10/27 17:13:18;;;;;;;13.95;7.13;;;;;;;;;;4895522;29;20088;-58
2022/10/27 17:15:44;;;;;;;16.10;7.53;;;;;;;;;;4886064;29;20552;-63
2022/10/27 17:18:12;;;;;;;17.17;8.65;;;;;;;;;;4874747;29;20112;-57
2022/10/27 17:20:38;;;;;;;17.48;9.18;;;;;;;;;;4887682;29;20052;-58
2022/10/27 17:23:04;;;;;;;22.92;9.40;;;;;;;;;;4876546;29;20040;-57
2022/10/27 17:25:30;;;;;;;20.60;8.75;;;;;;;;;;4877031;29;20044;-57
2022/10/27 17:27:56;;;;;;;17.52;9.32;;;;;;;;;;4877190;29;20190;-58
2022/10/27 17:30:22;;;;;;;18.75;8.35;;;;;;;;;;4876669;29;20028;-59
2022/10/27 17:32:48;;;;;;;24.90;13.40;;;;;;;;;;4880912;29;20034;-56
2022/10/27 17:35:17;;;;;;;28.60;13.60;;;;;;;;;;4895660;29;20084;-57
2022/10/27 17:37:46;;;;;;;17.92;9.48;;;;;;;;;;4895329;29;20056;-58
2022/10/27 17:40:12;;;;;;;19.42;10.48;;;;;;;;;;4895570;29;20024;-60
2022/10/27 17:42:39;;;;;;;18.13;9.02;;;;;;;;;;4894767;29;20036;-59
2022/10/27 17:45:06;;;;;;;16.90;7.95;;;;;;;;;;4895361;29;20051;-58
2022/10/27 17:47:32;;;;;;;13.90;7.60;;;;;;;;;;4895072;29;20075;-56
2022/10/27 17:50:00;;;;;;;25.02;10.75;;;;;;;;;;4895287;29;20040;-57
2022/10/27 17:52:29;;;;;;;21.63;10.20;;;;;;;;;;4895421;29;20037;-57
2022/10/27 17:54:55;;;;;;;25.52;11.27;;;;;;;;;;4895519;29;20037;-56
2022/10/27 17:57:21;;;;;;;22.65;10.80;;;;;;;;;;4895325;29;20029;-58
2022/10/27 17:59:47;;;;;;;20.45;10.57;;;;;;;;;;4895027;29;20036;-65
2022/10/27 18:02:13;;;;;;;23.92;10.77;;;;;;;;;;4895191;29;20119;-67
2022/10/27 18:04:41;;;;;;;19.67;10.60;;;;;;;;;;4895651;29;20177;-57
2022/10/27 18:07:07;;;;;;;22.13;10.57;;;;;;;;;;4878187;29;20401;-72
2022/10/27 18:09:33;;;;;;;18.42;10.30;;;;;;;;;;4895227;29;20036;-57
2022/10/27 18:11:59;;;;;;;17.55;9.35;;;;;;;;;;4895163;29;20033;-57
2022/10/27 18:14:26;;;;;;;15.02;9.68;;;;;;;;;;4894509;29;20040;-70
2022/10/27 18:16:53;;;;;;;21.65;12.18;;;;;;;;;;4898237;29;20025;-57
2022/10/27 18:19:19;;;;;;;25.73;12.95;;;;;;;;;;4898919;29;20032;-58
2022/10/27 18:21:46;;;;;;;22.35;12.43;;;;;;;;;;4899289;29;20180;-58
2022/10/27 18:24:13;;;;;;;29.42;13.88;;;;;;;;;;4898485;29;20052;-64
2022/10/27 18:26:41;;;;;;;24.15;12.00;;;;;;;;;;4899039;29;20036;-61
2022/10/27 18:29:07;;;;;;;22.40;12.43;;;;;;;;;;4898562;29;20496;-57
2022/10/27 18:31:37;;;;;;;27.25;12.25;;;;;;;;;;4898970;29;20044;-64
2022/10/27 18:34:04;;;;;;;24.40;13.18;;;;;;;;;;4899004;29;20036;-57
2022/10/27 18:36:30;;;;;;;22.30;12.20;;;;;;;;;;4898718;29;20035;-59
2022/10/27 18:38:57;;;;;;;24.67;12.68;;;;;;;;;;4898533;29;20072;-60
2022/10/27 18:41:24;;;;;;;24.38;13.27;;;;;;;;;;4881660;29;20392;-58
2022/10/27 18:43:51;;;;;;;27.63;13.55;;;;;;;;;;4898124;29;20032;-59
2022/10/27 18:46:17;;;;;;;24.50;13.57;;;;;;;;;;4898573;29;20033;-57
2022/10/27 18:48:50;;;;;;;28.83;13.30;;;;;;;;;;4898547;29;20036;-66
2022/10/27 18:51:17;;;;;;;26.48;13.18;;;;;;;;;;4898362;29;20037;-67
2022/10/27 18:53:44;;;;;;;25.08;13.45;;;;;;;;;;4898594;29;20024;-59
2022/10/27 18:56:10;;;;;;;25.52;13.75;;;;;;;;;;4898432;29;20124;-68
2022/10/27 18:58:37;;;;;;;27.35;14.27;;;;;;;;;;4898217;29;20033;-68
2022/10/27 19:01:04;;;;;;;26.05;13.07;;;;;;;;;;4898273;29;20035;-70
2022/10/27 19:03:30;;;;;;;30.88;13.88;;;;;;;;;;4898127;29;20329;-58
2022/10/27 19:05:57;;;;;;;24.73;12.80;;;;;;;;;;4898138;29;20029;-60
2022/10/27 19:08:23;;;;;;;28.42;12.63;;;;;;;;;;4898098;29;20040;-68
2022/10/27 19:10:49;;;;;;;27.38;14.32;;;;;;;;;;4898250;29;20540;-60
2022/10/27 19:13:15;;;;;;;25.38;13.43;;;;;;;;;;4898202;29;20060;-59
2022/10/27 19:15:41;;;;;;;25.83;14.45;;;;;;;;;;4897824;29;20025;-66
2022/10/27 19:18:08;;;;;;;24.27;13.90;;;;;;;;;;4888946;29;20107;-58
2022/10/27 19:20:34;;;;;;;27.17;13.55;;;;;;;;;;4886545;29;20028;-66
2022/10/27 19:23:00;;;;;;;27.88;13.90;;;;;;;;;;4888354;29;20548;-58
2022/10/27 19:25:26;;;;;;;24.92;13.80;;;;;;;;;;4887487;29;20047;-62
2022/10/27 19:27:53;;;;;;;28.60;14.10;;;;;;;;;;4889241;29;20424;-59
2022/10/27 19:30:22;;;;;;;25.48;13.75;;;;;;;;;;4897766;29;20388;-58
2022/10/27 19:32:48;;;;;;;25.55;13.30;;;;;;;;;;4897637;29;20028;-59
2022/10/27 19:35:14;;;;;;;25.88;14.10;;;;;;;;;;4897678;29;20033;-61
2022/10/27 19:37:40;;;;;;;27.08;14.45;;;;;;;;;;4897654;29;20029;-59
2022/10/27 19:40:07;;;;;;;29.58;15.05;;;;;;;;;;4897599;29;20055;-58
2022/10/27 19:42:34;;;;;;;29.63;15.65;;;;;;;;;;4880441;29;20120;-71
2022/10/27 19:45:01;;;;;;;29.60;16.75;;;;;;;;;;4897629;29;20029;-58
2022/10/27 19:47:27;;;;;;;34.67;19.27;;;;;;;;;;4897629;29;20076;-60
2022/10/27 19:49:53;;;;;;;79.03;48.28;;;;;;;;;;4897265;29;20039;-62
2022/10/27 19:52:20;;;;;;;42.95;24.77;;;;;;;;;;4897052;29;20107;-58
2022/10/27 19:54:46;;;;;;;35.95;19.27;;;;;;;;;;4897615;29;20033;-60
2022/10/27 19:57:12;;;;;;;30.23;15.95;;;;;;;;;;4897404;29;20025;-59
2022/10/27 19:59:38;;;;;;;29.50;16.17;;;;;;;;;;4891368;29;20088;-61
2022/10/27 20:02:05;;;;;;;33.40;18.33;;;;;;;;;;4897743;29;20029;-58
2022/10/27 20:04:36;;;;;;;28.05;17.27;;;;;;;;;;4897401;29;20063;-58
2022/10/27 20:07:02;;;;;;;29.63;18.10;;;;;;;;;;4879519;29;20388;-59